Date,TemperatureHighF,TemperatureAvgF,TemperatureLowF,DewpointHighF,DewpointAvgF,DewpointLowF,HumidityHigh,HumidityAvg,HumidityLow,PressureMaxIn,PressureMinIn,WindSpeedMaxMPH,WindSpeedAvgMPH,GustSpeedMaxMPH,PrecipitationSumIn
2014-1-1,51,39,25,35,26,23,94,64,37,0.00,40.00,8,4,16,0.00
2014-1-2,45,30,18,41,24,8,98,78,60,0.00,40.00,12,8,27,0.13
2014-1-3,28,21,10,12,9,7,87,61,42,0.00,40.00,8,4,16,0.00
2014-1-4,46,35,22,30,14,-100,61,44,27,0.00,40.00,12,7,22,0.00
2014-1-5,50,38,15,49,31,7,95,76,61,0.00,40.00,15,10,28,0.37
2014-1-6,15,7,3,7,-6,-12,77,55,41,0.00,40.00,12,8,26,0.01
2014-1-7,22,12,0,3,-3,-9,74,50,34,0.00,40.00,8,5,19,0.00
2014-1-8,38,29,20,20,9,3,66,44,33,0.00,40.00,6,4,13,0.00
2014-1-9,45,34,29,37,25,18,90,70,50,0.00,40.00,9,4,17,0.09
2014-1-10,54,48,41,51,44,36,98,85,72,0.00,40.00,12,7,28,0.76
2014-1-11,54,47,40,53,40,-100,98,78,61,0.00,40.00,10,6,21,1.20
2014-1-12,57,46,33,37,32,27,97,63,37,0.00,40.00,10,5,22,0.01
2014-1-13,54,50,46,50,44,29,99,83,40,0.00,40.00,12,7,28,0.96
2014-1-14,57,43,32,46,36,30,99,80,36,0.00,40.00,9,4,20,0.03
2014-1-15,36,28,20,34,18,13,93,65,48,0.00,40.00,7,4,14,0.02
2014-1-16,48,34,20,30,21,14,82,60,36,0.00,40.00,11,5,25,0.00
2014-1-17,38,28,19,28,15,6,82,59,43,0.00,40.00,10,6,22,0.00
2014-1-18,46,32,17,30,15,-100,87,56,29,0.00,40.00,11,4,22,0.00
2014-1-19,47,39,32,30,25,21,77,57,38,0.00,40.00,9,6,22,0.00
2014-1-20,61,47,39,31,26,23,69,46,28,0.00,40.00,8,4,17,0.00
2014-1-21,40,26,13,31,15,2,89,62,43,0.00,40.00,17,7,35,0.00
2014-1-22,30,20,12,14,8,5,76,61,40,0.00,40.00,7,4,18,0.00
2014-1-23,21,16,6,15,0,-7,83,50,29,0.00,40.00,9,6,22,0.00
2014-1-24,29,16,0,2,-3,-5,80,48,22,0.00,40.00,11,5,26,0.00
2014-1-25,48,36,26,23,11,-100,44,36,26,0.00,40.00,11,8,26,0.00
2014-1-26,63,48,22,33,24,4,47,39,30,0.00,40.00,11,8,27,0.00
2014-1-27,52,25,14,33,3,-9,65,39,26,0.00,40.00,12,7,26,0.00
2014-1-28,20,13,4,-5,-8,-11,61,39,25,0.00,40.00,7,4,16,0.00
2014-1-29,30,15,0,4,-4,-8,77,47,24,0.00,40.00,6,2,15,0.00
2014-1-30,40,30,15,5,0,-3,47,30,17,0.00,40.00,12,6,24,0.00
2014-1-31,42,39,34,37,20,2,94,52,24,0.00,40.00,8,4,15,0.00
2014-2-1,65,56,50,50,34,-100,84,47,32,0.00,40.00,11,8,24,0.00
2014-2-2,55,36,30,52,34,28,97,93,84,0.00,40.00,9,5,19,1.34
2014-2-3,30,21,23,28,-10,-100,94,66,88,0.00,40.00,6,4,13,0.62
2014-2-4,32,31,27,32,30,25,98,97,93,0.00,40.00,5,4,15,0.13
2014-2-5,28,25,22,24,22,19,91,87,80,0.00,40.00,7,4,16,0.43
2014-2-6,22,19,15,19,11,-100,90,83,84,0.00,40.00,5,4,10,0.00
2014-2-7,22,17,8,19,11,3,90,78,66,0.00,40.00,4,3,10,0.00
2014-2-8,34,28,21,32,26,19,98,90,80,0.00,40.00,3,2,7,0.14
2014-2-9,34,32,27,32,30,24,99,93,85,0.00,40.00,6,3,13,0.15
2014-2-10,27,22,13,24,16,5,87,75,64,0.00,40.00,9,6,18,0.09
2014-2-11,29,18,9,14,8,2,78,66,47,0.00,40.00,8,5,14,0.09
2014-2-12,39,27,16,26,18,12,85,71,52,0.00,40.00,5,4,11,0.22
2014-2-13,49,34,20,24,19,12,90,60,23,0.00,40.00,8,3,15,0.35
2014-2-14,45,37,26,42,32,21,96,82,64,0.00,40.00,11,6,26,0.32
2014-2-15,37,30,21,21,16,-100,80,59,45,0.00,40.00,8,4,18,0.07
2014-2-16,49,38,31,30,26,21,81,62,47,0.00,40.00,7,4,15,0.00
2014-2-17,59,41,30,54,36,25,95,82,64,0.00,40.00,12,5,27,0.24
2014-2-18,64,51,28,57,34,26,96,59,24,0.00,40.00,11,5,21,0.02
2014-2-19,64,58,52,58,42,29,95,60,27,0.00,40.00,7,5,29,0.33
2014-2-20,70,63,45,62,54,31,92,73,51,0.00,40.00,17,9,32,0.82
2014-2-21,57,47,39,32,22,15,69,42,20,0.00,40.00,10,6,28,0.01
2014-2-22,68,61,45,22,16,-100,33,19,13,0.00,40.00,9,6,20,0.00
2014-2-23,54,45,31,35,30,19,81,57,44,0.00,40.00,9,6,19,0.01
2014-2-24,46,35,26,19,13,8,63,43,21,0.00,40.00,8,5,15,0.01
2014-2-25,46,36,30,20,16,14,60,44,27,0.00,40.00,7,5,16,0.00
2014-2-26,31,25,20,18,7,0,62,46,27,0.00,40.00,10,6,19,0.00
2014-2-27,42,30,20,12,8,1,63,42,25,0.00,40.00,8,5,16,0.00
2014-2-28,54,36,19,28,8,3,54,34,14,0.00,40.00,7,4,15,0.00
2014-3-1,58,50,42,42,35,-100,74,60,47,0.00,40.00,6,3,15,0.00
2014-3-2,53,37,23,44,33,21,95,88,67,0.00,40.00,8,5,22,0.72
2014-3-3,24,20,16,21,16,12,92,83,74,0.00,40.00,8,6,20,0.05
2014-3-4,33,24,14,29,20,10,98,85,67,0.00,40.00,5,3,10,0.18
2014-3-5,34,31,29,32,30,28,98,95,88,0.00,40.00,5,4,12,0.15
2014-3-6,49,36,28,30,26,22,97,67,43,0.00,40.00,7,4,14,0.89
2014-3-7,58,41,27,34,29,25,96,67,37,0.00,40.00,5,2,11,0.04
2014-3-8,61,46,33,44,35,-100,88,69,50,0.00,40.00,8,4,17,0.03
2014-3-9,55,43,32,39,29,24,88,60,34,0.00,40.00,7,4,13,0.00
2014-3-10,68,54,39,44,40,35,89,62,39,0.00,40.00,9,5,19,0.00
2014-3-11,78,64,50,55,48,42,88,60,35,0.00,40.00,9,6,19,0.00
2014-3-12,67,48,36,58,37,21,84,65,43,0.00,40.00,13,9,32,0.00
2014-3-13,56,42,27,27,23,18,68,49,31,0.00,40.00,7,4,13,0.00
2014-3-14,64,54,46,35,30,26,50,40,26,0.00,40.00,12,9,29,0.00
2014-3-15,71,57,40,41,34,-100,88,48,21,0.00,40.00,9,4,17,0.00
2014-3-16,55,43,33,48,38,-100,98,86,54,0.00,40.00,12,7,27,1.01
2014-3-17,48,37,30,32,27,20,88,67,53,0.00,40.00,9,6,21,0.07
2014-3-18,58,44,27,43,37,26,97,77,55,0.00,40.00,10,6,23,0.00
2014-3-19,62,53,45,47,42,36,81,67,40,0.00,40.00,12,8,30,0.00
2014-3-20,64,49,32,34,28,24,96,55,23,0.00,40.00,7,2,15,0.00
2014-3-21,70,64,41,29,27,24,58,26,18,0.00,40.00,10,6,21,0.00
2014-3-22,60,54,47,38,32,-100,54,44,31,0.00,40.00,8,6,19,0.00
2014-3-23,50,44,38,36,26,18,85,52,31,0.00,40.00,9,7,22,0.02
2014-3-24,52,46,40,17,14,11,36,27,20,0.00,40.00,7,5,16,0.00
2014-3-25,43,36,31,30,19,10,92,53,29,0.00,40.00,11,6,28,0.01
2014-3-26,52,36,20,17,11,6,78,41,16,0.00,40.00,7,3,17,0.01
2014-3-27,65,52,43,48,29,14,86,45,26,0.00,40.00,19,10,40,0.43
2014-3-28,65,60,53,60,56,48,96,89,77,0.00,40.00,12,5,21,0.93
2014-3-29,54,46,41,53,40,-100,97,83,72,0.00,40.00,10,6,22,1.30
2014-3-30,63,46,32,33,31,25,95,62,23,0.00,40.00,6,3,13,0.28
2014-3-31,76,57,36,35,29,23,89,44,14,0.00,40.00,10,5,18,0.00
2014-4-1,80,69,60,51,42,-100,59,39,24,0.00,40.00,8,4,16,0.00
2014-4-2,79,66,55,64,53,43,95,65,48,0.00,40.00,10,5,21,0.65
2014-4-3,74,69,63,67,63,60,98,82,63,0.00,40.00,13,7,27,0.70
2014-4-4,74,58,45,61,48,33,99,70,50,0.00,40.00,11,7,26,0.83
2014-4-5,56,47,40,33,29,-100,68,53,38,0.00,40.00,7,4,19,0.12
2014-4-6,64,52,36,49,35,31,96,57,31,0.00,40.00,7,4,16,0.04
2014-4-7,59,51,44,55,49,41,99,92,82,0.00,40.00,11,6,24,0.30
2014-4-8,61,47,42,46,35,-100,94,73,52,0.00,40.00,9,5,18,0.01
2014-4-9,66,54,41,42,34,26,93,54,22,0.00,40.00,8,4,19,0.00
2014-4-10,80,73,58,44,41,38,49,32,25,0.00,40.00,12,10,30,0.00
2014-4-11,77,66,57,60,49,41,96,56,39,0.00,40.00,10,6,20,0.08
2014-4-12,81,68,52,56,51,-100,99,62,36,0.00,40.00,12,7,27,0.08
2014-4-13,80,73,66,59,55,52,74,55,40,0.00,40.00,14,10,31,0.01
2014-4-14,72,63,55,60,58,52,99,84,59,0.00,40.00,11,6,31,1.18
2014-4-15,49,41,34,37,24,18,93,54,30,0.00,40.00,11,7,26,0.46
2014-4-16,61,43,28,27,23,19,90,52,21,0.00,40.00,8,4,17,0.00
2014-4-17,71,59,46,36,33,26,56,39,24,0.00,40.00,10,5,21,0.00
2014-4-18,72,55,45,46,40,35,85,61,33,0.00,40.00,5,2,11,0.00
2014-4-19,78,63,46,46,38,-100,82,45,21,0.00,40.00,9,3,21,0.00
2014-4-20,81,65,43,45,40,38,92,47,23,0.00,40.00,6,3,13,0.00
2014-4-21,80,67,54,56,47,-100,72,52,31,0.00,40.00,7,3,17,0.00
2014-4-22,77,66,56,62,48,-100,99,64,29,0.00,40.00,8,4,17,0.08
2014-4-23,71,59,47,41,36,29,73,44,24,0.00,40.00,7,4,16,0.08
2014-4-24,81,65,46,60,41,34,94,46,24,0.00,40.00,9,5,20,0.15
2014-4-25,75,63,51,62,49,33,97,65,22,0.00,40.00,9,5,22,0.16
2014-4-26,82,61,43,47,43,41,95,59,25,0.00,40.00,7,3,18,0.00
2014-4-28,68,66,64,66,64,63,96,94,92,0.00,40.00,8,6,16,0.00
2014-4-29,72,62,53,63,52,45,98,72,41,0.00,40.00,8,5,24,0.00
2014-4-30,63,54,44,52,46,42,98,76,51,0.00,40.00,8,4,19,0.00
2014-5-1,65,54,43,45,39,31,95,63,30,0.00,40.00,9,4,22,0.00
2014-5-2,64,54,42,46,42,36,95,66,35,0.00,40.00,9,3,18,0.00
2014-5-3,79,61,44,47,41,-100,94,55,23,0.00,40.00,8,3,20,0.00
2014-5-4,88,76,55,51,48,45,77,39,24,0.00,40.00,8,5,20,0.00
2014-5-5,86,76,66,54,50,45,56,41,27,0.00,40.00,10,6,21,0.00
2014-5-6,86,76,66,59,50,44,63,43,23,0.00,40.00,8,6,19,0.00
2014-5-7,70,70,70,51,51,51,51,51,51,0.00,40.00,5,5,9,0.00
2014-5-13,84,72,64,66,64,61,90,79,50,0.00,40.00,6,3,14,0.00
2014-5-14,66,59,52,63,57,51,98,94,87,0.00,40.00,6,4,20,1.48
2014-5-15,65,53,46,51,47,43,97,81,46,0.00,40.00,8,4,24,0.06
2014-5-16,63,53,45,49,42,36,98,73,38,0.00,40.00,10,4,19,0.02
2014-5-17,64,54,48,48,43,-100,97,73,43,0.00,40.00,5,2,13,0.01
2014-5-18,71,59,47,48,42,39,93,58,36,0.00,40.00,5,3,11,0.01
2014-5-19,79,61,46,63,49,-100,97,73,53,0.00,40.00,6,4,13,0.00
2014-5-20,84,74,66,63,58,-100,84,61,39,0.00,40.00,10,6,22,0.00
2014-5-21,84,74,63,66,61,56,87,65,50,0.00,40.00,8,4,19,0.00
2014-5-22,88,75,65,71,65,-100,93,74,53,0.00,40.00,6,3,13,0.00
2014-5-23,84,74,64,69,63,58,97,71,47,0.00,40.00,5,2,12,0.00
2014-5-24,81,70,63,64,58,-100,89,67,48,0.00,40.00,7,3,13,0.00
2014-5-25,86,73,63,72,67,57,99,83,60,0.00,40.00,9,3,28,1.70
2014-5-26,88,76,66,73,68,66,100,79,50,0.00,40.00,5,2,10,0.10
2014-5-27,85,75,67,73,68,65,96,82,57,0.00,40.00,5,2,13,0.09
2014-5-28,81,72,66,71,67,65,99,86,60,0.00,40.00,6,2,11,0.56
2014-5-29,83,72,65,70,68,65,100,88,59,0.00,40.00,4,2,8,0.01
2014-5-30,87,75,64,72,68,64,100,80,53,0.00,40.00,4,1,10,0.01
2014-5-31,88,75,65,72,66,-100,99,77,52,0.00,40.00,4,2,13,0.00
2014-6-1,85,76,68,71,70,68,100,83,59,0.00,40.00,8,4,16,0.00
2014-6-2,79,76,71,70,69,68,96,78,72,0.00,40.00,9,6,19,0.14
2014-6-3,87,76,70,73,71,69,97,85,57,0.00,40.00,4,3,11,0.15
2014-6-4,87,78,71,74,72,69,96,81,62,0.00,40.00,11,4,22,0.22
2014-6-5,75,71,67,72,70,66,99,95,86,0.00,40.00,4,2,20,0.84
2014-6-6,84,74,67,74,69,67,100,88,62,0.00,40.00,4,1,9,0.02
2014-6-7,84,72,68,73,66,-100,99,85,59,0.00,40.00,6,3,31,0.46
2014-6-8,78,70,66,67,64,62,97,82,59,0.00,40.00,6,3,16,0.01
2014-6-9,77,70,64,69,65,63,98,87,71,0.00,40.00,5,2,12,1.35
2014-6-10,75,70,66,69,67,65,98,88,76,0.00,40.00,8,5,17,1.39
2014-6-11,79,71,66,71,67,65,98,86,64,0.00,40.00,7,3,16,0.19
2014-6-12,84,73,64,71,67,64,100,83,53,0.00,40.00,5,1,10,0.15
2014-6-13,78,70,60,68,62,54,98,79,49,0.00,40.00,7,2,13,0.03
2014-6-14,82,66,51,61,52,-100,98,70,37,0.00,40.00,5,2,11,0.01
2014-6-15,87,74,60,71,65,58,97,76,52,0.00,40.00,8,4,17,0.00
2014-6-16,89,79,68,73,69,67,95,73,51,0.00,40.00,6,3,14,0.00
2014-6-17,90,81,73,75,71,68,91,74,54,0.00,40.00,7,4,19,0.00
2014-6-18,91,81,74,76,72,70,93,76,56,0.00,40.00,7,3,14,0.00
2014-6-19,91,81,70,75,72,69,98,76,53,0.00,40.00,5,2,12,0.00
2014-6-20,89,78,73,75,72,70,97,81,57,0.00,40.00,6,2,14,0.02
2014-6-21,89,76,68,74,68,-100,99,82,59,0.00,40.00,4,2,10,0.02
2014-6-22,92,78,67,74,71,67,99,82,48,0.00,40.00,4,1,8,0.00
2014-6-23,87,76,70,74,71,68,99,85,65,0.00,40.00,7,2,18,0.01
2014-6-24,81,74,70,73,70,68,98,87,74,0.00,40.00,6,4,17,0.02
2014-6-25,87,78,69,73,70,65,99,78,48,0.00,40.00,5,2,9,0.01
2014-6-26,84,74,67,74,70,66,98,86,56,0.00,40.00,6,1,13,0.00
2014-6-27,82,73,68,73,71,68,99,92,69,0.00,40.00,5,2,12,0.04
2014-6-28,84,74,70,71,67,-100,99,83,65,0.00,40.00,8,4,19,0.01
2014-6-29,77,72,68,70,69,67,98,91,77,0.00,40.00,8,3,18,0.21
2014-6-30,91,80,70,77,73,69,98,81,60,0.00,40.00,8,4,18,0.02
2014-7-1,90,80,68,76,73,67,97,81,62,0.00,40.00,7,4,26,0.25
2014-7-2,86,75,68,72,69,63,99,84,62,0.00,40.00,5,2,13,0.25
2014-7-3,74,68,61,61,59,56,95,74,56,0.00,40.00,6,3,13,0.01
2014-7-4,80,69,57,61,58,55,98,72,44,0.00,40.00,6,2,15,0.00
2014-7-5,85,67,53,64,54,-100,97,69,36,0.00,40.00,4,1,11,0.00
2014-7-6,85,71,57,68,61,56,97,76,46,0.00,40.00,7,2,14,0.00
2014-7-7,89,76,63,72,68,62,97,76,54,0.00,40.00,8,4,20,0.00
2014-7-8,86,79,71,71,69,67,95,72,58,0.00,40.00,7,5,19,0.15
2014-7-9,87,78,67,72,68,63,97,74,45,0.00,40.00,5,3,13,0.01
2014-7-10,87,75,62,70,64,61,98,74,44,0.00,40.00,3,1,8,0.00
2014-7-11,90,79,63,69,65,61,98,68,40,0.00,40.00,4,2,10,0.00
2014-7-12,92,76,65,72,66,64,97,73,44,0.00,40.00,4,1,10,0.00
2014-7-13,92,82,70,74,72,68,96,73,51,0.00,40.00,8,3,18,0.00
2014-7-14,86,77,71,74,72,69,96,85,67,0.00,40.00,7,4,18,0.22
2014-7-15,77,71,63,70,61,51,98,73,40,0.00,40.00,7,3,17,0.10
2014-7-16,76,65,53,58,54,51,97,70,42,0.00,40.00,5,2,11,0.00
2014-7-17,80,65,54,60,55,52,97,75,38,0.00,40.00,5,1,10,0.00
2014-7-18,72,66,61,63,61,56,97,82,69,0.00,40.00,5,2,11,0.03
2014-7-19,75,68,63,67,64,60,94,88,74,0.00,40.00,5,3,12,0.01
2014-7-20,85,71,66,68,64,59,97,82,41,0.00,40.00,4,1,8,0.00
2014-7-21,90,75,61,70,65,60,97,74,42,0.00,40.00,4,1,13,0.00
2014-7-22,93,80,66,73,69,65,97,73,47,0.00,40.00,5,2,11,0.00
2014-7-23,88,79,69,74,72,67,98,80,58,0.00,40.00,6,2,16,0.00
2014-7-24,81,74,65,69,62,57,93,68,46,0.00,40.00,6,3,12,0.00
2014-7-25,84,70,56,63,59,55,96,72,41,0.00,40.00,5,2,11,0.00
2014-7-26,91,75,61,74,67,60,97,76,54,0.00,40.00,7,3,16,0.00
2014-7-27,92,83,73,76,74,69,97,75,54,0.00,40.00,8,5,20,0.34
2014-7-28,82,73,61,72,62,59,97,71,46,0.00,40.00,8,3,17,0.34
2014-7-29,78,67,56,59,54,49,90,65,38,0.00,40.00,7,3,15,0.00
2014-7-30,82,66,54,62,56,52,97,74,40,0.00,40.00,4,1,9,0.00
2014-7-31,84,69,59,64,58,55,97,77,37,0.00,40.00,5,1,10,0.00
2014-8-1,88,74,61,66,61,56,97,70,35,0.00,40.00,5,1,12,0.00
2014-8-2,90,75,63,64,61,55,95,65,32,0.00,40.00,7,3,14,0.00
2014-8-3,89,77,64,65,61,56,91,61,33,0.00,40.00,5,3,13,0.00
2014-8-4,91,76,64,64,58,52,85,58,27,0.00,40.00,5,2,11,0.00
2014-8-5,91,77,60,68,62,59,96,65,35,0.00,40.00,6,2,15,0.00
2014-8-6,95,82,68,70,65,60,95,62,32,0.00,40.00,7,3,16,0.00
2014-8-7,90,81,69,73,69,65,95,71,47,0.00,40.00,6,3,13,0.01
2014-8-8,84,74,69,74,71,68,96,88,68,0.00,40.00,7,3,19,0.32
2014-8-9,89,78,72,75,72,70,96,84,59,0.00,40.00,5,3,12,0.06
2014-8-10,89,79,69,75,70,68,98,79,52,0.00,40.00,6,2,15,0.06
2014-8-11,88,79,71,76,72,68,97,82,55,0.00,40.00,7,3,15,0.02
2014-8-12,84,76,68,69,61,54,98,65,39,0.00,40.00,7,4,17,0.01
2014-8-13,83,69,55,63,55,52,97,65,35,0.00,40.00,6,2,14,0.00
2014-8-14,87,71,55,61,57,54,97,67,34,0.00,40.00,5,2,13,0.00
2014-8-15,88,75,59,64,60,56,97,65,36,0.00,40.00,8,2,13,0.00
2014-8-16,84,74,65,68,65,62,95,74,51,0.00,40.00,5,2,11,0.00
2014-8-17,81,75,71,75,70,65,97,85,68,0.00,40.00,8,4,20,0.23
2014-8-18,83,75,69,74,71,68,98,90,70,0.00,40.00,4,2,9,0.02
2014-8-19,90,80,71,75,72,70,98,81,60,0.00,40.00,7,3,15,0.00
2014-8-20,96,82,74,76,73,68,96,75,48,0.00,40.00,7,4,16,0.00
2014-8-21,94,83,70,73,70,68,96,69,44,0.00,40.00,7,4,16,0.00
2014-8-22,93,84,76,75,73,72,95,73,50,0.00,40.00,7,4,15,0.00
2014-8-23,94,76,72,76,72,70,97,86,54,0.00,40.00,7,2,19,0.09
2014-8-24,92,79,70,76,73,69,98,83,56,0.00,40.00,5,2,16,0.54
2014-8-25,93,81,70,76,72,68,98,78,45,0.00,40.00,6,1,12,0.01
2014-8-26,88,79,70,79,74,69,98,85,63,0.00,40.00,5,2,10,0.07
2014-8-27,91,81,70,78,72,69,98,78,53,0.00,40.00,4,1,14,0.07
2014-8-28,91,79,71,77,72,70,98,83,54,0.00,40.00,5,2,15,0.01
2014-8-29,92,79,68,72,67,60,98,73,38,0.00,40.00,8,2,15,0.01
2014-8-30,82,75,70,74,68,63,98,79,66,0.00,40.00,6,3,15,0.86
2014-8-31,85,75,71,74,72,70,97,89,65,0.00,40.00,8,4,17,1.84
2014-9-1,88,79,74,76,73,71,94,82,62,0.00,40.00,8,5,22,0.80
2014-9-2,87,78,73,75,72,70,97,84,65,0.00,40.00,7,3,19,0.18
2014-9-3,89,76,70,74,71,68,99,85,51,0.00,40.00,6,1,11,0.01
2014-9-4,90,77,67,75,69,65,99,79,45,0.00,40.00,6,2,12,0.00
2014-9-5,92,79,69,75,71,68,98,80,47,0.00,40.00,5,1,11,0.00
2014-9-6,83,75,68,73,68,62,98,81,65,0.00,40.00,7,3,13,0.00
2014-9-7,80,71,65,65,64,61,93,77,55,0.00,40.00,6,4,16,0.00
2014-9-8,85,70,57,62,60,56,97,74,42,0.00,40.00,4,1,10,0.00
2014-9-9,88,73,59,69,63,58,98,77,37,0.00,40.00,5,1,9,0.00
2014-9-10,86,79,71,74,72,67,89,77,63,0.00,40.00,8,6,18,0.00
2014-9-11,81,71,63,72,68,61,97,90,75,0.00,40.00,6,3,14,0.38
2014-9-12,66,63,60,62,59,58,97,89,81,0.00,40.00,5,4,15,0.01
2014-9-13,66,58,51,60,52,50,99,82,58,0.00,40.00,7,4,16,0.00
2014-9-14,76,61,48,58,52,48,100,77,46,0.00,40.00,5,2,13,0.00
2014-9-15,74,64,54,63,59,54,100,86,62,0.00,40.00,4,1,8,0.00
2014-9-16,72,65,56,65,60,54,98,85,60,0.00,40.00,5,2,12,0.18
2014-9-17,71,60,49,60,55,49,100,85,57,0.00,40.00,5,2,11,0.01
2014-9-18,77,64,56,65,59,56,100,85,55,0.00,40.00,5,2,10,0.01
2014-9-19,86,68,55,67,60,54,99,81,45,0.00,40.00,5,2,14,0.00
2014-9-20,86,73,62,68,66,62,100,79,53,0.00,40.00,7,3,16,0.00
2014-9-21,85,74,63,71,63,48,93,71,32,0.00,40.00,9,4,16,0.00
2014-9-22,75,63,51,54,49,43,92,66,33,0.00,40.00,6,3,18,0.00
2014-9-23,79,61,46,52,48,45,97,68,31,0.00,40.00,6,3,13,0.00
2014-9-24,84,64,47,60,53,46,98,73,37,0.00,40.00,6,2,11,0.00
2014-9-25,85,67,52,61,56,52,100,74,34,0.00,40.00,4,2,11,0.00
2014-9-26,85,69,53,64,59,53,99,76,44,0.00,40.00,5,1,11,0.00
2014-9-27,84,70,60,67,62,59,99,80,48,0.00,40.00,6,2,11,0.00
2014-9-28,84,72,61,67,63,58,100,78,42,0.00,40.00,5,1,10,0.00
2014-9-29,86,71,58,67,61,57,100,75,38,0.00,40.00,4,1,10,0.00
2014-9-30,89,70,55,64,56,49,100,69,25,0.00,40.00,5,1,10,0.00
2014-10-1,88,71,56,62,58,55,99,70,34,0.00,40.00,7,2,14,0.00
2014-10-2,86,73,63,70,63,58,93,74,51,0.00,40.00,12,5,22,0.01
2014-10-3,76,64,49,69,58,35,98,80,42,0.00,40.00,11,6,34,0.43
2014-10-4,59,48,37,41,36,30,97,68,33,0.00,40.00,9,4,25,0.02
2014-10-5,75,56,37,51,43,35,98,67,36,0.00,40.00,9,4,22,0.00
2014-10-6,75,66,57,60,55,50,94,71,50,0.00,40.00,9,6,22,0.21
2014-10-7,78,68,60,68,63,59,98,84,64,0.00,40.00,11,4,22,0.26
2014-10-8,83,68,54,68,54,41,98,67,26,0.00,40.00,4,1,11,0.01
2014-10-9,83,67,57,68,62,54,97,83,59,0.00,40.00,4,2,19,0.15
2014-10-10,72,67,59,69,66,58,100,96,84,0.00,40.00,5,2,17,3.04
2014-10-11,59,55,53,58,54,53,100,97,95,0.00,40.00,6,4,11,0.04
2014-10-12,74,64,55,67,61,55,100,92,71,0.00,40.00,7,4,13,0.03
2014-10-13,79,70,64,68,65,61,98,87,63,0.00,40.00,14,8,26,1.74
2014-10-14,65,59,54,64,56,52,97,89,76,0.00,40.00,8,6,22,1.81
2014-10-15,57,54,53,55,53,52,98,95,89,0.00,40.00,6,4,13,0.14
2014-10-16,69,57,52,55,52,50,99,85,58,0.00,40.00,4,2,11,0.02
2014-10-17,78,63,52,57,53,48,99,72,41,0.00,40.00,7,4,15,0.01
2014-10-18,64,54,46,51,46,43,99,75,52,0.00,40.00,5,2,16,0.01
2014-10-19,64,51,39,49,44,38,98,80,49,0.00,40.00,5,2,11,0.00
2014-10-20,70,56,45,54,50,45,100,81,52,0.00,40.00,7,2,14,0.00
2014-10-21,72,60,49,56,49,44,100,71,39,0.00,40.00,7,3,16,0.00
2014-10-22,64,52,41,45,42,40,97,74,43,0.00,40.00,6,3,17,0.00
2014-10-23,63,49,36,48,42,35,99,81,47,0.00,40.00,7,1,14,0.00
2014-10-24,71,55,42,55,49,42,100,83,49,0.00,40.00,5,1,11,0.00
2014-10-25,80,63,49,64,57,49,100,85,56,0.00,40.00,5,1,11,0.00
2014-10-26,82,67,53,65,61,53,100,83,54,0.00,40.00,6,2,12,0.00
2014-10-27,82,72,66,64,61,55,92,69,42,0.00,40.00,9,6,22,0.00
2014-10-28,71,61,50,65,57,49,97,87,73,0.00,40.00,7,4,17,0.36
2014-10-29,67,53,44,52,44,37,100,75,35,0.00,40.00,7,2,18,0.18
2014-10-30,64,47,34,45,37,33,98,71,31,0.00,40.00,5,1,10,0.00
2014-10-31,51,47,39,49,38,22,99,74,38,0.00,40.00,10,5,29,0.06
2014-11-1,50,40,32,28,25,22,84,56,39,0.00,40.00,9,5,25,0.01
2014-11-2,58,40,25,29,26,20,95,63,23,0.00,40.00,6,2,12,0.00
2014-11-3,68,53,38,31,27,24,61,40,20,0.00,40.00,7,4,17,0.00
2014-11-4,70,60,55,56,45,32,100,59,41,0.00,40.00,8,5,18,0.17
2014-11-5,57,55,54,57,55,53,100,99,96,0.00,40.00,4,2,9,0.93
2014-11-6,59,52,41,54,41,29,100,70,40,0.00,40.00,12,7,29,0.04
2014-11-7,56,42,34,33,30,27,90,63,34,0.00,40.00,6,2,13,0.00
2014-11-8,57,46,34,42,37,32,95,71,52,0.00,40.00,6,3,17,0.00
2014-11-9,60,44,31,40,33,31,99,73,34,0.00,40.00,5,1,12,0.00
2014-11-10,69,55,35,43,37,33,93,56,28,0.00,40.00,12,6,22,0.00
2014-11-11,63,52,35,58,44,30,95,76,47,0.00,40.00,10,6,21,0.16
2014-11-12,37,34,31,30,25,22,81,70,63,0.00,40.00,7,5,14,0.02
2014-11-13,35,30,26,22,14,10,68,52,38,0.00,40.00,8,5,17,0.00
2014-11-14,37,28,18,18,14,10,88,58,37,0.00,40.00,6,2,16,0.00
2014-11-15,42,30,18,24,17,10,90,60,28,0.00,40.00,7,2,14,0.00
2014-11-16,40,37,34,38,34,28,98,90,70,0.00,40.00,4,2,11,0.24
2014-11-17,35,29,26,34,21,10,95,72,51,0.00,40.00,10,6,20,0.09
2014-11-18,32,24,16,11,6,3,64,48,32,0.00,40.00,10,4,20,0.01
2014-11-19,54,40,23,30,21,11,63,49,29,0.00,40.00,12,8,27,0.00
2014-11-20,46,35,24,27,21,17,88,58,33,0.00,40.00,6,2,13,0.00
2014-11-21,50,40,26,25,22,18,81,52,34,0.00,40.00,7,4,14,0.00
2014-11-22,68,56,46,42,35,25,58,44,28,0.00,40.00,10,6,21,0.00
2014-11-23,60,58,55,59,52,43,97,82,59,0.00,40.00,9,6,24,0.97
2014-11-24,62,53,41,58,40,30,93,63,43,0.00,40.00,13,9,33,0.17
2014-11-25,47,39,31,32,27,24,82,64,42,0.00,40.00,6,2,14,0.00
2014-11-26,48,36,23,38,28,22,97,78,37,0.00,40.00,7,3,17,0.12
2014-11-27,38,34,25,36,27,21,92,77,56,0.00,40.00,10,5,21,0.02
2014-11-28,48,36,24,25,24,22,94,65,38,0.00,40.00,9,4,21,0.00
2014-11-29,62,53,44,53,42,25,77,65,46,0.00,40.00,12,8,23,0.00
2014-11-30,69,64,60,57,55,53,80,72,63,0.00,40.00,11,8,25,0.00
2014-12-1,64,43,36,53,39,34,94,87,67,0.00,40.00,7,6,18,0.04
2014-12-2,40,38,36,39,36,34,100,96,91,0.00,40.00,6,4,16,0.01
2014-12-3,43,41,37,37,36,33,97,83,72,0.00,40.00,6,3,16,0.00
2014-12-4,47,44,40,47,42,36,100,95,79,0.00,40.00,6,3,9,0.17
2014-12-5,65,56,47,61,55,47,100,97,83,0.00,40.00,9,4,24,1.60
2014-12-6,62,48,42,62,44,35,100,84,66,0.00,40.00,10,6,23,0.78
2014-12-7,48,42,38,36,33,31,88,72,55,0.00,40.00,9,5,16,0.02
2014-12-8,55,44,37,40,37,33,94,78,54,0.00,40.00,8,2,20,0.00
2014-12-9,42,39,37,40,34,28,100,81,58,0.00,40.00,11,4,22,0.00
2014-12-10,44,36,31,34,27,25,85,66,51,0.00,40.00,6,3,12,0.00
2014-12-11,44,34,26,27,25,23,89,69,48,0.00,40.00,6,2,11,0.00
2014-12-12,51,34,22,34,28,20,95,78,52,0.00,40.00,6,2,12,0.00
2014-12-13,46,39,28,38,35,27,99,85,74,0.00,40.00,3,2,6,0.00
2014-12-14,51,47,44,48,43,38,98,86,79,0.00,40.00,4,2,9,0.00
2014-12-15,58,47,37,54,46,37,100,95,76,0.00,40.00,10,5,20,0.04
2014-12-16,57,45,38,50,37,33,92,74,65,0.00,40.00,10,7,24,0.02
2014-12-17,44,37,30,36,28,25,92,72,52,0.00,40.00,5,3,10,0.00
2014-12-18,37,34,32,32,31,27,96,88,77,0.00,40.00,5,2,9,0.17
2014-12-19,41,36,33,31,28,26,88,74,59,0.00,40.00,5,3,10,0.05
2014-12-20,43,32,26,28,24,24,93,73,54,0.00,40.00,4,1,7,0.00
2014-12-21,53,36,22,31,26,20,95,72,40,0.00,40.00,5,3,14,0.00